Udon Thani, Thailand

1:08 PM ICT on September 16, 2014 (GMT +0700)
Wattay International | Change Station
CLOSE
Current Station
Airport
Location: Vientiane,
Elevation: 561 ft
Nearby Weather Stations

Elev 561 ft 17.95 °N, 102.57 °E | Updated 38 minutes ago

Mostly Cloudy
Mostly Cloudy
88 °F
Feels Like 98 °F
N
5
Wind Variable Wind from West

Today
High -- | Low -- °F
--% Chance of Precip.
Yesterday
High -- | Low -- °F
Precip. -- in
5:56 AM 6:10 PM
Waning Gibbous, 48% visible
Pressure 29.50 in
Visibility 6.2 miles
Clouds Scattered Clouds 5000 ft
Mostly Cloudy 10000 ft
Heat Index 98 °F
Dew Point 75 °F
Humidity 66%
Rainfall 0.00 in
Snow Depth Not available.
UV 9 out of 12
Pollen Not available.
Air Quality Not available.
Flu Activity Not available.
METAR VLVT 160530Z 27004KT 9999 SCT050 BKN100 31/24 Q0999 NOSIG

More Conditions Fewer Conditions

Pressure 29.50 in
Visibility 6.2 miles
Clouds Scattered Clouds 5000 ft
Mostly Cloudy 10000 ft
Heat Index 98 °F
Dew Point 75 °F
Humidity 66%
Rainfall 0.00 in
Snow Depth Not available.
UV 9 out of 12
Pollen Not available.
Air Quality Not available.
Flu Activity Not available.
METAR VLVT 160530Z 27004KT 9999 SCT050 BKN100 31/24 Q0999 NOSIG

More Conditions Fewer Conditions

10-Day Weather Forecast

Almanac

Astronomy

Sep. 16, 2014 Rise Set
Actual Time 5:56 AM ICT 6:10 PM ICT
Civil Twilight 5:35 AM ICT 6:32 PM ICT
Nautical Twilight 5:09 AM ICT 6:57 PM ICT
Astronomical Twilight 4:44 AM ICT 7:22 PM ICT
Moon No Moon Rise 12:30 PM ICT
Length of Visible Light 12h 56m
Length of Day
12h 13m
Tomorrow will be 0m 59s shorter.
Waning Gibbous, 48% of the Moon is Illuminated
Today
Waning Gibbous
Sep 24
New
Oct 1
First Quarter
Oct 8
Full
Oct 15
Last Quarter

Yesterday's Extremes

Country Highs Country Lows

Community

WunderPhotos

Upload Photos

1,753,702 photos uploaded!

Nearby

Snow Depth

Not available.

Earthquake Activity

City Distance Mag. Time & Date
No recent earthquake activity has been reported nearby.
Minimum magnitude displayed is 2.5.

Coastal Water Temperatures

Place Temperature
No Stations Reporting

Nearby Weather Stations